sensor_id;sensor_type;location;lat;lon;timestamp;P1;durP1;ratioP1;P2;durP2;ratioP2
62582;SDS011;48641;51.676;5.808;2023-07-13T00:00:28;2.42;;;1.10;;
62582;SDS011;48641;51.676;5.808;2023-07-13T00:02:55;3.20;;;1.27;;
62582;SDS011;48641;51.676;5.808;2023-07-13T00:05:22;3.38;;;1.15;;
62582;SDS011;48641;51.676;5.808;2023-07-13T00:07:49;2.50;;;1.10;;
62582;SDS011;48641;51.676;5.808;2023-07-13T00:10:15;1.92;;;0.90;;
62582;SDS011;48641;51.676;5.808;2023-07-13T00:12:42;2.03;;;1.05;;
62582;SDS011;48641;51.676;5.808;2023-07-13T00:15:19;2.22;;;1.20;;
62582;SDS011;48641;51.676;5.808;2023-07-13T00:17:56;2.40;;;1.00;;
62582;SDS011;48641;51.676;5.808;2023-07-13T00:20:23;2.55;;;1.08;;
62582;SDS011;48641;51.676;5.808;2023-07-13T00:22:50;2.08;;;0.95;;
62582;SDS011;48641;51.676;5.808;2023-07-13T00:25:20;3.03;;;1.10;;
62582;SDS011;48641;51.676;5.808;2023-07-13T00:27:49;2.50;;;1.10;;
62582;SDS011;48641;51.676;5.808;2023-07-13T00:30:17;2.05;;;0.98;;
62582;SDS011;48641;51.676;5.808;2023-07-13T00:32:43;2.47;;;1.20;;
62582;SDS011;48641;51.676;5.808;2023-07-13T00:35:09;3.33;;;0.98;;
62582;SDS011;48641;51.676;5.808;2023-07-13T00:37:35;3.08;;;1.05;;
62582;SDS011;48641;51.676;5.808;2023-07-13T00:40:04;3.35;;;1.10;;
62582;SDS011;48641;51.676;5.808;2023-07-13T00:42:30;4.18;;;1.15;;
62582;SDS011;48641;51.676;5.808;2023-07-13T00:47:38;2.78;;;1.10;;
62582;SDS011;48641;51.676;5.808;2023-07-13T00:50:06;2.95;;;0.98;;
62582;SDS011;48641;51.676;5.808;2023-07-13T00:52:33;3.20;;;1.05;;
62582;SDS011;48641;51.676;5.808;2023-07-13T00:55:02;1.75;;;0.90;;
62582;SDS011;48641;51.676;5.808;2023-07-13T00:57:29;3.33;;;1.23;;
62582;SDS011;48641;51.676;5.808;2023-07-13T00:59:55;2.22;;;0.82;;
62582;SDS011;48641;51.676;5.808;2023-07-13T01:04:50;4.20;;;0.90;;
62582;SDS011;48641;51.676;5.808;2023-07-13T01:07:15;2.80;;;1.10;;
62582;SDS011;48641;51.676;5.808;2023-07-13T01:09:42;3.38;;;0.90;;
62582;SDS011;48641;51.676;5.808;2023-07-13T01:12:07;3.65;;;1.00;;
62582;SDS011;48641;51.676;5.808;2023-07-13T01:14:33;2.65;;;0.90;;
62582;SDS011;48641;51.676;5.808;2023-07-13T01:16:59;2.47;;;1.00;;
62582;SDS011;48641;51.676;5.808;2023-07-13T01:22:06;3.13;;;0.90;;
62582;SDS011;48641;51.676;5.808;2023-07-13T01:24:44;2.38;;;0.77;;
62582;SDS011;48641;51.676;5.808;2023-07-13T01:27:12;2.22;;;1.00;;
62582;SDS011;48641;51.676;5.808;2023-07-13T01:29:40;1.90;;;0.82;;
62582;SDS011;48641;51.676;5.808;2023-07-13T01:32:08;3.88;;;1.02;;
62582;SDS011;48641;51.676;5.808;2023-07-13T01:34:36;3.30;;;0.97;;
62582;SDS011;48641;51.676;5.808;2023-07-13T01:37:02;2.35;;;0.90;;
62582;SDS011;48641;51.676;5.808;2023-07-13T01:39:29;2.53;;;0.90;;
62582;SDS011;48641;51.676;5.808;2023-07-13T01:41:55;2.42;;;0.80;;
62582;SDS011;48641;51.676;5.808;2023-07-13T01:44:21;2.35;;;0.98;;
62582;SDS011;48641;51.676;5.808;2023-07-13T01:46:47;2.78;;;1.00;;
62582;SDS011;48641;51.676;5.808;2023-07-13T01:49:12;2.67;;;1.05;;
62582;SDS011;48641;51.676;5.808;2023-07-13T01:51:38;2.20;;;0.95;;
62582;SDS011;48641;51.676;5.808;2023-07-13T01:54:03;2.33;;;1.00;;
62582;SDS011;48641;51.676;5.808;2023-07-13T01:56:29;1.88;;;0.90;;
62582;SDS011;48641;51.676;5.808;2023-07-13T01:58:55;3.05;;;1.13;;
62582;SDS011;48641;51.676;5.808;2023-07-13T02:01:21;2.35;;;0.90;;
62582;SDS011;48641;51.676;5.808;2023-07-13T02:03:47;2.28;;;0.95;;
62582;SDS011;48641;51.676;5.808;2023-07-13T02:06:14;2.45;;;1.00;;
62582;SDS011;48641;51.676;5.808;2023-07-13T02:08:40;3.47;;;1.08;;
62582;SDS011;48641;51.676;5.808;2023-07-13T02:11:07;3.03;;;0.93;;
62582;SDS011;48641;51.676;5.808;2023-07-13T02:13:33;2.10;;;0.90;;
62582;SDS011;48641;51.676;5.808;2023-07-13T02:16:00;3.33;;;1.20;;
62582;SDS011;48641;51.676;5.808;2023-07-13T02:18:26;2.38;;;1.00;;
62582;SDS011;48641;51.676;5.808;2023-07-13T02:20:52;2.63;;;0.90;;
62582;SDS011;48641;51.676;5.808;2023-07-13T02:23:18;2.92;;;1.10;;
62582;SDS011;48641;51.676;5.808;2023-07-13T02:25:44;3.15;;;0.80;;
62582;SDS011;48641;51.676;5.808;2023-07-13T02:28:10;2.42;;;1.00;;
62582;SDS011;48641;51.676;5.808;2023-07-13T02:30:35;2.45;;;1.00;;
62582;SDS011;48641;51.676;5.808;2023-07-13T02:33:01;2.55;;;0.82;;
62582;SDS011;48641;51.676;5.808;2023-07-13T02:35:27;2.20;;;0.85;;
62582;SDS011;48641;51.676;5.808;2023-07-13T02:37:53;3.00;;;0.80;;
62582;SDS011;48641;51.676;5.808;2023-07-13T02:40:18;3.55;;;1.10;;
62582;SDS011;48641;51.676;5.808;2023-07-13T02:42:44;3.88;;;0.95;;
62582;SDS011;48641;51.676;5.808;2023-07-13T02:45:10;2.22;;;0.90;;
62582;SDS011;48641;51.676;5.808;2023-07-13T02:47:37;1.60;;;0.80;;
62582;SDS011;48641;51.676;5.808;2023-07-13T02:50:03;3.80;;;0.82;;
62582;SDS011;48641;51.676;5.808;2023-07-13T02:52:29;2.40;;;0.80;;
62582;SDS011;48641;51.676;5.808;2023-07-13T02:54:55;1.20;;;0.80;;
62582;SDS011;48641;51.676;5.808;2023-07-13T02:57:20;2.92;;;0.90;;
62582;SDS011;48641;51.676;5.808;2023-07-13T02:59:46;1.25;;;0.77;;
62582;SDS011;48641;51.676;5.808;2023-07-13T03:02:12;1.92;;;0.82;;
62582;SDS011;48641;51.676;5.808;2023-07-13T03:04:38;2.33;;;0.90;;
62582;SDS011;48641;51.676;5.808;2023-07-13T03:07:06;4.00;;;1.00;;
62582;SDS011;48641;51.676;5.808;2023-07-13T03:09:32;2.08;;;0.95;;
62582;SDS011;48641;51.676;5.808;2023-07-13T03:11:59;1.60;;;0.80;;
62582;SDS011;48641;51.676;5.808;2023-07-13T03:14:25;2.58;;;0.93;;
62582;SDS011;48641;51.676;5.808;2023-07-13T03:16:51;2.88;;;1.23;;
62582;SDS011;48641;51.676;5.808;2023-07-13T03:19:17;2.35;;;0.80;;
62582;SDS011;48641;51.676;5.808;2023-07-13T03:21:43;2.25;;;0.90;;
62582;SDS011;48641;51.676;5.808;2023-07-13T03:24:09;2.63;;;1.00;;
62582;SDS011;48641;51.676;5.808;2023-07-13T03:26:35;3.72;;;1.10;;
62582;SDS011;48641;51.676;5.808;2023-07-13T03:29:00;2.50;;;0.90;;
62582;SDS011;48641;51.676;5.808;2023-07-13T03:31:27;2.20;;;1.00;;
62582;SDS011;48641;51.676;5.808;2023-07-13T03:33:55;2.40;;;0.82;;
62582;SDS011;48641;51.676;5.808;2023-07-13T03:36:23;2.30;;;0.90;;
62582;SDS011;48641;51.676;5.808;2023-07-13T03:38:52;2.38;;;0.88;;
62582;SDS011;48641;51.676;5.808;2023-07-13T03:41:19;2.08;;;0.90;;
62582;SDS011;48641;51.676;5.808;2023-07-13T03:43:46;2.15;;;0.70;;
62582;SDS011;48641;51.676;5.808;2023-07-13T03:48:41;1.85;;;0.80;;
62582;SDS011;48641;51.676;5.808;2023-07-13T03:51:09;4.20;;;1.00;;
62582;SDS011;48641;51.676;5.808;2023-07-13T03:53:38;2.63;;;1.02;;
62582;SDS011;48641;51.676;5.808;2023-07-13T03:56:05;3.30;;;1.00;;
62582;SDS011;48641;51.676;5.808;2023-07-13T03:58:34;2.70;;;0.88;;
62582;SDS011;48641;51.676;5.808;2023-07-13T04:01:02;3.05;;;0.93;;
62582;SDS011;48641;51.676;5.808;2023-07-13T04:03:30;2.65;;;0.90;;
62582;SDS011;48641;51.676;5.808;2023-07-13T04:05:57;3.35;;;0.80;;
62582;SDS011;48641;51.676;5.808;2023-07-13T04:08:25;2.67;;;0.85;;
62582;SDS011;48641;51.676;5.808;2023-07-13T04:10:55;2.15;;;0.73;;
62582;SDS011;48641;51.676;5.808;2023-07-13T04:13:22;3.33;;;1.27;;
62582;SDS011;48641;51.676;5.808;2023-07-13T04:15:48;2.45;;;0.70;;
62582;SDS011;48641;51.676;5.808;2023-07-13T04:18:14;3.45;;;0.98;;
62582;SDS011;48641;51.676;5.808;2023-07-13T04:20:40;1.73;;;0.80;;
62582;SDS011;48641;51.676;5.808;2023-07-13T04:23:05;2.35;;;0.80;;
62582;SDS011;48641;51.676;5.808;2023-07-13T04:25:31;3.33;;;1.27;;
62582;SDS011;48641;51.676;5.808;2023-07-13T04:27:57;1.63;;;0.70;;
62582;SDS011;48641;51.676;5.808;2023-07-13T04:30:23;2.67;;;0.90;;
62582;SDS011;48641;51.676;5.808;2023-07-13T04:32:50;1.95;;;0.90;;
62582;SDS011;48641;51.676;5.808;2023-07-13T04:35:17;2.92;;;0.90;;
62582;SDS011;48641;51.676;5.808;2023-07-13T04:37:49;2.60;;;0.90;;
62582;SDS011;48641;51.676;5.808;2023-07-13T04:40:16;4.38;;;1.10;;
62582;SDS011;48641;51.676;5.808;2023-07-13T04:42:43;2.58;;;0.82;;
62582;SDS011;48641;51.676;5.808;2023-07-13T04:45:10;3.00;;;0.80;;
62582;SDS011;48641;51.676;5.808;2023-07-13T04:47:36;1.98;;;0.85;;
62582;SDS011;48641;51.676;5.808;2023-07-13T04:50:01;2.10;;;0.80;;
62582;SDS011;48641;51.676;5.808;2023-07-13T04:52:27;2.15;;;0.80;;
62582;SDS011;48641;51.676;5.808;2023-07-13T04:54:53;2.90;;;0.80;;
62582;SDS011;48641;51.676;5.808;2023-07-13T04:57:19;2.83;;;0.88;;
62582;SDS011;48641;51.676;5.808;2023-07-13T04:59:45;3.45;;;0.85;;
62582;SDS011;48641;51.676;5.808;2023-07-13T05:02:10;2.92;;;0.90;;
62582;SDS011;48641;51.676;5.808;2023-07-13T05:04:36;3.33;;;1.05;;
62582;SDS011;48641;51.676;5.808;2023-07-13T05:07:02;4.03;;;1.17;;
62582;SDS011;48641;51.676;5.808;2023-07-13T05:09:27;3.35;;;1.00;;
62582;SDS011;48641;51.676;5.808;2023-07-13T05:11:53;2.13;;;0.98;;
62582;SDS011;48641;51.676;5.808;2023-07-13T05:14:19;2.30;;;0.80;;
62582;SDS011;48641;51.676;5.808;2023-07-13T05:16:44;2.38;;;0.85;;
62582;SDS011;48641;51.676;5.808;2023-07-13T05:19:11;3.80;;;0.90;;
62582;SDS011;48641;51.676;5.808;2023-07-13T05:21:37;2.40;;;0.82;;
62582;SDS011;48641;51.676;5.808;2023-07-13T05:24:03;2.10;;;0.82;;
62582;SDS011;48641;51.676;5.808;2023-07-13T05:26:28;1.98;;;0.90;;
62582;SDS011;48641;51.676;5.808;2023-07-13T05:28:54;2.55;;;1.00;;
62582;SDS011;48641;51.676;5.808;2023-07-13T05:31:20;2.90;;;1.05;;
62582;SDS011;48641;51.676;5.808;2023-07-13T05:33:45;3.58;;;1.10;;
62582;SDS011;48641;51.676;5.808;2023-07-13T05:36:11;3.38;;;1.13;;
62582;SDS011;48641;51.676;5.808;2023-07-13T05:38:37;4.20;;;1.20;;
62582;SDS011;48641;51.676;5.808;2023-07-13T05:41:02;4.50;;;1.08;;
62582;SDS011;48641;51.676;5.808;2023-07-13T05:43:28;3.20;;;1.00;;
62582;SDS011;48641;51.676;5.808;2023-07-13T05:45:56;3.13;;;0.90;;
62582;SDS011;48641;51.676;5.808;2023-07-13T05:48:22;3.80;;;1.17;;
62582;SDS011;48641;51.676;5.808;2023-07-13T05:50:48;4.95;;;1.10;;
62582;SDS011;48641;51.676;5.808;2023-07-13T05:53:14;6.15;;;1.13;;
62582;SDS011;48641;51.676;5.808;2023-07-13T05:55:41;4.53;;;1.35;;
62582;SDS011;48641;51.676;5.808;2023-07-13T05:58:08;4.70;;;1.40;;
62582;SDS011;48641;51.676;5.808;2023-07-13T06:00:34;3.28;;;1.10;;
62582;SDS011;48641;51.676;5.808;2023-07-13T06:02:59;3.50;;;1.20;;
62582;SDS011;48641;51.676;5.808;2023-07-13T06:05:25;5.18;;;1.48;;
62582;SDS011;48641;51.676;5.808;2023-07-13T06:07:52;5.38;;;1.60;;
62582;SDS011;48641;51.676;5.808;2023-07-13T06:10:17;4.38;;;1.50;;
62582;SDS011;48641;51.676;5.808;2023-07-13T06:12:43;5.57;;;1.83;;
62582;SDS011;48641;51.676;5.808;2023-07-13T06:15:09;5.70;;;1.50;;
62582;SDS011;48641;51.676;5.808;2023-07-13T06:17:35;4.95;;;1.83;;
62582;SDS011;48641;51.676;5.808;2023-07-13T06:20:00;5.68;;;1.85;;
62582;SDS011;48641;51.676;5.808;2023-07-13T06:22:27;5.70;;;1.60;;
62582;SDS011;48641;51.676;5.808;2023-07-13T06:24:52;6.30;;;1.80;;
62582;SDS011;48641;51.676;5.808;2023-07-13T06:27:18;5.35;;;1.90;;
62582;SDS011;48641;51.676;5.808;2023-07-13T06:29:44;5.80;;;1.70;;
62582;SDS011;48641;51.676;5.808;2023-07-13T06:32:10;5.28;;;1.73;;
62582;SDS011;48641;51.676;5.808;2023-07-13T06:34:35;6.13;;;1.98;;
62582;SDS011;48641;51.676;5.808;2023-07-13T06:37:01;4.40;;;1.77;;
62582;SDS011;48641;51.676;5.808;2023-07-13T06:39:27;5.05;;;1.75;;
62582;SDS011;48641;51.676;5.808;2023-07-13T06:41:52;5.60;;;1.80;;
62582;SDS011;48641;51.676;5.808;2023-07-13T06:44:18;6.20;;;2.08;;
62582;SDS011;48641;51.676;5.808;2023-07-13T06:46:44;6.00;;;2.15;;
62582;SDS011;48641;51.676;5.808;2023-07-13T06:49:10;5.40;;;1.88;;
62582;SDS011;48641;51.676;5.808;2023-07-13T06:51:35;6.13;;;2.00;;
62582;SDS011;48641;51.676;5.808;2023-07-13T06:54:01;4.50;;;1.88;;
62582;SDS011;48641;51.676;5.808;2023-07-13T06:56:28;5.20;;;1.80;;
62582;SDS011;48641;51.676;5.808;2023-07-13T06:58:54;5.80;;;2.35;;
62582;SDS011;48641;51.676;5.808;2023-07-13T07:01:19;5.57;;;1.90;;
62582;SDS011;48641;51.676;5.808;2023-07-13T07:03:45;5.18;;;2.00;;
62582;SDS011;48641;51.676;5.808;2023-07-13T07:06:16;7.25;;;2.42;;
62582;SDS011;48641;51.676;5.808;2023-07-13T07:08:43;7.07;;;2.38;;
62582;SDS011;48641;51.676;5.808;2023-07-13T07:11:12;6.22;;;2.28;;
62582;SDS011;48641;51.676;5.808;2023-07-13T07:13:39;28.67;;;3.95;;
62582;SDS011;48641;51.676;5.808;2023-07-13T07:16:05;17.80;;;3.40;;
62582;SDS011;48641;51.676;5.808;2023-07-13T07:18:31;14.60;;;3.83;;
62582;SDS011;48641;51.676;5.808;2023-07-13T07:20:57;14.38;;;4.93;;
62582;SDS011;48641;51.676;5.808;2023-07-13T07:23:23;17.90;;;4.20;;
62582;SDS011;48641;51.676;5.808;2023-07-13T07:25:48;10.23;;;4.00;;
62582;SDS011;48641;51.676;5.808;2023-07-13T07:28:14;14.95;;;4.60;;
62582;SDS011;48641;51.676;5.808;2023-07-13T07:30:43;13.07;;;4.30;;
62582;SDS011;48641;51.676;5.808;2023-07-13T07:33:13;13.88;;;4.68;;
62582;SDS011;48641;51.676;5.808;2023-07-13T07:35:39;14.20;;;5.18;;
62582;SDS011;48641;51.676;5.808;2023-07-13T07:38:05;11.10;;;4.50;;
62582;SDS011;48641;51.676;5.808;2023-07-13T07:40:31;15.10;;;4.22;;
62582;SDS011;48641;51.676;5.808;2023-07-13T07:42:58;12.88;;;4.40;;
62582;SDS011;48641;51.676;5.808;2023-07-13T07:45:23;13.50;;;4.35;;
62582;SDS011;48641;51.676;5.808;2023-07-13T07:47:51;11.43;;;5.10;;
62582;SDS011;48641;51.676;5.808;2023-07-13T07:50:19;10.70;;;4.63;;
62582;SDS011;48641;51.676;5.808;2023-07-13T07:52:45;11.40;;;4.82;;
62582;SDS011;48641;51.676;5.808;2023-07-13T07:55:10;15.60;;;5.10;;
62582;SDS011;48641;51.676;5.808;2023-07-13T07:57:36;15.18;;;5.53;;
62582;SDS011;48641;51.676;5.808;2023-07-13T08:00:02;13.07;;;5.25;;
62582;SDS011;48641;51.676;5.808;2023-07-13T08:02:28;13.38;;;5.43;;
62582;SDS011;48641;51.676;5.808;2023-07-13T08:04:53;13.70;;;5.65;;
62582;SDS011;48641;51.676;5.808;2023-07-13T08:07:19;11.77;;;5.95;;
62582;SDS011;48641;51.676;5.808;2023-07-13T08:09:45;14.15;;;5.93;;
62582;SDS011;48641;51.676;5.808;2023-07-13T08:12:11;13.27;;;5.60;;
62582;SDS011;48641;51.676;5.808;2023-07-13T08:14:37;13.52;;;5.72;;
62582;SDS011;48641;51.676;5.808;2023-07-13T08:17:03;13.13;;;5.60;;
62582;SDS011;48641;51.676;5.808;2023-07-13T08:19:30;12.05;;;6.18;;
62582;SDS011;48641;51.676;5.808;2023-07-13T08:21:55;15.70;;;5.93;;
62582;SDS011;48641;51.676;5.808;2023-07-13T08:24:22;13.50;;;6.18;;
62582;SDS011;48641;51.676;5.808;2023-07-13T08:26:48;13.40;;;5.85;;
62582;SDS011;48641;51.676;5.808;2023-07-13T08:29:15;13.18;;;5.97;;
62582;SDS011;48641;51.676;5.808;2023-07-13T08:31:41;14.32;;;6.05;;
62582;SDS011;48641;51.676;5.808;2023-07-13T08:34:06;11.73;;;5.72;;
62582;SDS011;48641;51.676;5.808;2023-07-13T08:36:32;14.38;;;5.82;;
62582;SDS011;48641;51.676;5.808;2023-07-13T08:38:58;11.85;;;5.82;;
62582;SDS011;48641;51.676;5.808;2023-07-13T08:41:23;13.88;;;5.80;;
62582;SDS011;48641;51.676;5.808;2023-07-13T08:43:54;12.32;;;5.80;;
62582;SDS011;48641;51.676;5.808;2023-07-13T08:46:28;13.40;;;5.75;;
62582;SDS011;48641;51.676;5.808;2023-07-13T08:49:03;12.98;;;5.78;;
62582;SDS011;48641;51.676;5.808;2023-07-13T08:54:05;12.10;;;5.63;;
62582;SDS011;48641;51.676;5.808;2023-07-13T08:57:08;11.85;;;5.15;;
62582;SDS011;48641;51.676;5.808;2023-07-13T08:59:40;11.75;;;5.60;;
62582;SDS011;48641;51.676;5.808;2023-07-13T09:04:47;12.57;;;6.15;;
62582;SDS011;48641;51.676;5.808;2023-07-13T09:10:17;12.85;;;5.13;;
62582;SDS011;48641;51.676;5.808;2023-07-13T09:15:41;11.68;;;5.38;;
62582;SDS011;48641;51.676;5.808;2023-07-13T09:21:04;10.25;;;5.00;;
62582;SDS011;48641;51.676;5.808;2023-07-13T09:23:41;9.45;;;4.75;;
62582;SDS011;48641;51.676;5.808;2023-07-13T09:28:42;9.43;;;5.03;;
62582;SDS011;48641;51.676;5.808;2023-07-13T09:31:16;9.52;;;5.05;;
62582;SDS011;48641;51.676;5.808;2023-07-13T09:33:55;10.25;;;4.80;;
62582;SDS011;48641;51.676;5.808;2023-07-13T09:36:25;10.98;;;5.28;;
62582;SDS011;48641;51.676;5.808;2023-07-13T09:47:21;8.80;;;5.07;;
62582;SDS011;48641;51.676;5.808;2023-07-13T09:50:04;8.52;;;5.15;;
62582;SDS011;48641;51.676;5.808;2023-07-13T09:52:39;10.88;;;5.30;;
62582;SDS011;48641;51.676;5.808;2023-07-13T09:55:11;12.23;;;5.22;;
62582;SDS011;48641;51.676;5.808;2023-07-13T09:57:54;11.35;;;5.25;;
62582;SDS011;48641;51.676;5.808;2023-07-13T10:00:21;10.75;;;5.38;;
62582;SDS011;48641;51.676;5.808;2023-07-13T10:02:59;10.75;;;5.10;;
62582;SDS011;48641;51.676;5.808;2023-07-13T10:05:26;10.90;;;5.32;;
62582;SDS011;48641;51.676;5.808;2023-07-13T10:07:52;10.77;;;5.80;;
62582;SDS011;48641;51.676;5.808;2023-07-13T10:10:21;10.05;;;5.53;;
62582;SDS011;48641;51.676;5.808;2023-07-13T10:12:48;10.02;;;5.38;;
62582;SDS011;48641;51.676;5.808;2023-07-13T10:15:17;12.13;;;5.77;;
62582;SDS011;48641;51.676;5.808;2023-07-13T10:17:49;8.63;;;5.53;;
62582;SDS011;48641;51.676;5.808;2023-07-13T10:20:16;10.18;;;5.07;;
62582;SDS011;48641;51.676;5.808;2023-07-13T10:25:32;11.07;;;5.35;;
62582;SDS011;48641;51.676;5.808;2023-07-13T10:28:04;11.00;;;5.43;;
62582;SDS011;48641;51.676;5.808;2023-07-13T10:30:39;8.48;;;5.38;;
62582;SDS011;48641;51.676;5.808;2023-07-13T10:33:10;9.73;;;5.65;;
62582;SDS011;48641;51.676;5.808;2023-07-13T10:35:39;9.27;;;5.85;;
62582;SDS011;48641;51.676;5.808;2023-07-13T10:38:11;12.93;;;5.60;;
62582;SDS011;48641;51.676;5.808;2023-07-13T10:40:55;10.32;;;4.97;;
62582;SDS011;48641;51.676;5.808;2023-07-13T10:43:27;9.07;;;4.50;;
62582;SDS011;48641;51.676;5.808;2023-07-13T10:45:56;9.52;;;5.00;;
62582;SDS011;48641;51.676;5.808;2023-07-13T10:48:24;10.60;;;5.10;;
62582;SDS011;48641;51.676;5.808;2023-07-13T10:50:50;8.55;;;4.60;;
62582;SDS011;48641;51.676;5.808;2023-07-13T10:53:22;9.90;;;4.80;;
62582;SDS011;48641;51.676;5.808;2023-07-13T10:55:56;8.95;;;4.50;;
62582;SDS011;48641;51.676;5.808;2023-07-13T10:58:37;9.30;;;4.88;;
62582;SDS011;48641;51.676;5.808;2023-07-13T11:01:12;11.48;;;5.18;;
62582;SDS011;48641;51.676;5.808;2023-07-13T11:03:55;8.43;;;5.15;;
62582;SDS011;48641;51.676;5.808;2023-07-13T11:09:07;11.35;;;4.95;;
62582;SDS011;48641;51.676;5.808;2023-07-13T11:23:38;7.45;;;4.57;;
62582;SDS011;48641;51.676;5.808;2023-07-13T11:25:34;7.97;;;4.90;;
62582;SDS011;48641;51.676;5.808;2023-07-13T11:35:49;9.18;;;4.97;;
62582;SDS011;48641;51.676;5.808;2023-07-13T11:43:44;7.82;;;4.70;;
62582;SDS011;48641;51.676;5.808;2023-07-13T11:46:28;7.20;;;4.22;;
62582;SDS011;48641;51.676;5.808;2023-07-13T11:48:54;6.90;;;4.15;;
62582;SDS011;48641;51.676;5.808;2023-07-13T11:51:29;8.55;;;4.60;;
62582;SDS011;48641;51.676;5.808;2023-07-13T11:54:00;7.60;;;4.35;;
62582;SDS011;48641;51.676;5.808;2023-07-13T11:56:28;7.55;;;4.10;;
62582;SDS011;48641;51.676;5.808;2023-07-13T11:58:55;6.90;;;4.20;;
62582;SDS011;48641;51.676;5.808;2023-07-13T12:01:24;9.50;;;4.38;;
62582;SDS011;48641;51.676;5.808;2023-07-13T12:04:00;8.40;;;4.20;;
62582;SDS011;48641;51.676;5.808;2023-07-13T12:06:29;11.23;;;4.67;;
62582;SDS011;48641;51.676;5.808;2023-07-13T12:08:57;7.90;;;4.35;;
62582;SDS011;48641;51.676;5.808;2023-07-13T12:11:24;8.38;;;4.65;;
62582;SDS011;48641;51.676;5.808;2023-07-13T12:13:50;7.72;;;4.10;;
62582;SDS011;48641;51.676;5.808;2023-07-13T12:16:17;9.63;;;4.15;;
62582;SDS011;48641;51.676;5.808;2023-07-13T12:18:55;7.32;;;4.30;;
62582;SDS011;48641;51.676;5.808;2023-07-13T12:21:24;8.77;;;4.03;;
62582;SDS011;48641;51.676;5.808;2023-07-13T12:23:56;11.07;;;4.30;;
62582;SDS011;48641;51.676;5.808;2023-07-13T12:26:22;10.68;;;4.45;;
62582;SDS011;48641;51.676;5.808;2023-07-13T12:28:49;9.75;;;4.10;;
62582;SDS011;48641;51.676;5.808;2023-07-13T12:33:58;9.82;;;4.40;;
62582;SDS011;48641;51.676;5.808;2023-07-13T12:36:31;8.52;;;3.92;;
62582;SDS011;48641;51.676;5.808;2023-07-13T12:39:00;10.98;;;3.75;;
62582;SDS011;48641;51.676;5.808;2023-07-13T12:41:47;10.60;;;3.75;;
62582;SDS011;48641;51.676;5.808;2023-07-13T12:44:15;7.53;;;3.58;;
62582;SDS011;48641;51.676;5.808;2023-07-13T12:46:56;9.43;;;3.70;;
62582;SDS011;48641;51.676;5.808;2023-07-13T12:49:30;7.20;;;4.13;;
62582;SDS011;48641;51.676;5.808;2023-07-13T12:52:00;11.60;;;4.10;;
62582;SDS011;48641;51.676;5.808;2023-07-13T12:54:28;9.55;;;4.13;;
62582;SDS011;48641;51.676;5.808;2023-07-13T12:56:55;11.40;;;4.25;;
62582;SDS011;48641;51.676;5.808;2023-07-13T12:59:23;18.50;;;5.70;;
62582;SDS011;48641;51.676;5.808;2023-07-13T13:01:54;22.52;;;5.53;;
62582;SDS011;48641;51.676;5.808;2023-07-13T13:04:20;16.88;;;5.22;;
62582;SDS011;48641;51.676;5.808;2023-07-13T13:06:47;17.15;;;5.00;;
62582;SDS011;48641;51.676;5.808;2023-07-13T13:09:14;15.77;;;5.10;;
62582;SDS011;48641;51.676;5.808;2023-07-13T13:11:41;18.07;;;5.10;;
62582;SDS011;48641;51.676;5.808;2023-07-13T13:14:07;19.38;;;5.00;;
62582;SDS011;48641;51.676;5.808;2023-07-13T13:19:20;16.27;;;4.53;;
62582;SDS011;48641;51.676;5.808;2023-07-13T13:21:52;14.00;;;4.57;;
62582;SDS011;48641;51.676;5.808;2023-07-13T13:24:23;18.00;;;4.65;;
62582;SDS011;48641;51.676;5.808;2023-07-13T13:26:51;14.13;;;4.40;;
62582;SDS011;48641;51.676;5.808;2023-07-13T13:29:19;14.07;;;4.50;;
62582;SDS011;48641;51.676;5.808;2023-07-13T13:31:49;14.55;;;4.18;;
62582;SDS011;48641;51.676;5.808;2023-07-13T13:34:16;11.60;;;4.10;;
62582;SDS011;48641;51.676;5.808;2023-07-13T13:36:43;11.50;;;4.40;;
62582;SDS011;48641;51.676;5.808;2023-07-13T13:39:18;11.75;;;4.28;;
62582;SDS011;48641;51.676;5.808;2023-07-13T13:41:52;10.20;;;3.97;;
62582;SDS011;48641;51.676;5.808;2023-07-13T13:44:19;12.85;;;4.13;;
62582;SDS011;48641;51.676;5.808;2023-07-13T13:46:47;10.80;;;4.82;;
62582;SDS011;48641;51.676;5.808;2023-07-13T13:49:15;13.02;;;3.97;;
62582;SDS011;48641;51.676;5.808;2023-07-13T13:54:13;11.18;;;3.85;;
62582;SDS011;48641;51.676;5.808;2023-07-13T13:56:41;9.55;;;3.63;;
62582;SDS011;48641;51.676;5.808;2023-07-13T13:59:08;11.82;;;4.00;;
62582;SDS011;48641;51.676;5.808;2023-07-13T14:01:34;8.70;;;4.07;;
62582;SDS011;48641;51.676;5.808;2023-07-13T14:04:09;12.15;;;4.43;;
62582;SDS011;48641;51.676;5.808;2023-07-13T14:06:43;9.73;;;3.80;;
62582;SDS011;48641;51.676;5.808;2023-07-13T14:09:13;8.23;;;3.75;;
62582;SDS011;48641;51.676;5.808;2023-07-13T14:11:41;9.50;;;3.50;;
62582;SDS011;48641;51.676;5.808;2023-07-13T14:14:09;10.55;;;3.60;;
62582;SDS011;48641;51.676;5.808;2023-07-13T14:16:40;7.85;;;3.67;;
62582;SDS011;48641;51.676;5.808;2023-07-13T14:19:08;8.60;;;3.20;;
62582;SDS011;48641;51.676;5.808;2023-07-13T14:21:40;8.85;;;3.78;;
62582;SDS011;48641;51.676;5.808;2023-07-13T14:24:06;9.73;;;3.63;;
62582;SDS011;48641;51.676;5.808;2023-07-13T14:26:32;9.38;;;3.83;;
62582;SDS011;48641;51.676;5.808;2023-07-13T14:29:05;8.32;;;3.65;;
62582;SDS011;48641;51.676;5.808;2023-07-13T14:31:38;8.50;;;4.10;;
62582;SDS011;48641;51.676;5.808;2023-07-13T14:34:04;12.50;;;3.90;;
62582;SDS011;48641;51.676;5.808;2023-07-13T14:36:31;9.02;;;3.72;;
62582;SDS011;48641;51.676;5.808;2023-07-13T14:39:00;8.32;;;3.40;;
62582;SDS011;48641;51.676;5.808;2023-07-13T14:41:33;10.77;;;3.58;;
62582;SDS011;48641;51.676;5.808;2023-07-13T14:43:59;9.77;;;3.38;;
62582;SDS011;48641;51.676;5.808;2023-07-13T14:46:33;7.05;;;3.22;;
62582;SDS011;48641;51.676;5.808;2023-07-13T14:49:04;8.02;;;2.90;;
62582;SDS011;48641;51.676;5.808;2023-07-13T14:51:35;10.00;;;3.42;;
62582;SDS011;48641;51.676;5.808;2023-07-13T14:54:02;7.72;;;3.45;;
62582;SDS011;48641;51.676;5.808;2023-07-13T14:56:30;10.40;;;3.30;;
62582;SDS011;48641;51.676;5.808;2023-07-13T14:58:55;7.03;;;2.97;;
62582;SDS011;48641;51.676;5.808;2023-07-13T15:01:21;8.23;;;3.60;;
62582;SDS011;48641;51.676;5.808;2023-07-13T15:03:48;7.10;;;3.40;;
62582;SDS011;48641;51.676;5.808;2023-07-13T15:06:16;7.03;;;3.10;;
62582;SDS011;48641;51.676;5.808;2023-07-13T15:08:44;8.90;;;3.20;;
62582;SDS011;48641;51.676;5.808;2023-07-13T15:11:11;9.02;;;3.33;;
62582;SDS011;48641;51.676;5.808;2023-07-13T15:13:38;6.97;;;3.00;;
62582;SDS011;48641;51.676;5.808;2023-07-13T15:16:05;8.45;;;3.15;;
62582;SDS011;48641;51.676;5.808;2023-07-13T15:18:39;7.85;;;3.13;;
62582;SDS011;48641;51.676;5.808;2023-07-13T15:21:08;7.57;;;3.28;;
62582;SDS011;48641;51.676;5.808;2023-07-13T15:23:38;6.82;;;2.75;;
62582;SDS011;48641;51.676;5.808;2023-07-13T15:26:03;9.23;;;3.30;;
62582;SDS011;48641;51.676;5.808;2023-07-13T15:28:29;10.05;;;3.17;;
62582;SDS011;48641;51.676;5.808;2023-07-13T15:30:55;13.77;;;3.33;;
62582;SDS011;48641;51.676;5.808;2023-07-13T15:33:21;10.13;;;3.38;;
62582;SDS011;48641;51.676;5.808;2023-07-13T15:35:52;14.10;;;3.67;;
62582;SDS011;48641;51.676;5.808;2023-07-13T15:40:46;15.18;;;3.40;;
62582;SDS011;48641;51.676;5.808;2023-07-13T15:43:13;14.13;;;3.67;;
62582;SDS011;48641;51.676;5.808;2023-07-13T15:45:40;11.18;;;3.28;;
62582;SDS011;48641;51.676;5.808;2023-07-13T15:48:15;12.43;;;3.85;;
62582;SDS011;48641;51.676;5.808;2023-07-13T15:50:46;14.95;;;3.33;;
62582;SDS011;48641;51.676;5.808;2023-07-13T15:53:13;7.93;;;3.10;;
62582;SDS011;48641;51.676;5.808;2023-07-13T15:55:45;9.77;;;3.63;;
62582;SDS011;48641;51.676;5.808;2023-07-13T15:58:11;9.68;;;3.20;;
62582;SDS011;48641;51.676;5.808;2023-07-13T16:00:39;9.77;;;3.50;;
62582;SDS011;48641;51.676;5.808;2023-07-13T16:03:05;7.57;;;2.67;;